Time;durP1;ratioP1;P1;durP2;ratioP2;P2;SDS_P1;SDS_P2;PMS_P1;PMS_P2;Temp;Humidity;BMP_temperature;BMP_pressure;BME280_temperature;BME280_humidity;BME280_pressure;Samples;Min_cycle;Max_cycle;Signal;HPM_P1;HPM_P2
2023/03/19 00:07:08;;;;;;;3.95;2.40;;;;;;;7.85;100.00;97516.59;22063836;27;20105;-57
2023/03/19 00:17:10;;;;;;;3.73;1.93;;;;;;;7.87;100.00;97531.44;22063555;27;20037;-57
2023/03/19 00:27:13;;;;;;;2.57;1.47;;;;;;;7.87;100.00;97536.81;22063262;27;20047;-56
2023/03/19 00:37:16;;;;;;;4.57;2.13;;;;;;;7.90;100.00;97522.84;22063267;27;20054;-57
2023/03/19 00:47:18;;;;;;;3.60;1.60;;;;;;;7.90;100.00;97539.00;22062713;26;20084;-57
2023/03/19 00:57:21;;;;;;;3.30;1.50;;;;;;;7.93;100.00;97556.53;22063581;27;20428;-57
2023/03/19 01:07:23;;;;;;;2.50;1.20;;;;;;;8.02;100.00;97555.00;22041831;27;20405;-57
2023/03/19 01:17:25;;;;;;;3.47;1.67;;;;;;;8.14;100.00;97552.94;22062740;27;20401;-56
2023/03/19 01:27:28;;;;;;;1.77;1.00;;;;;;;8.20;100.00;97551.09;22062288;27;20044;-57
2023/03/19 01:37:31;;;;;;;2.93;1.33;;;;;;;8.25;100.00;97544.94;22062344;27;20128;-57
2023/03/19 01:47:37;;;;;;;3.97;1.20;;;;;;;8.22;100.00;97546.28;22062186;27;20032;-57
2023/03/19 01:57:39;;;;;;;1.93;1.37;;;;;;;8.14;100.00;97542.16;22062126;27;20033;-58
2023/03/19 02:07:43;;;;;;;3.13;2.10;;;;;;;8.04;100.00;97534.00;22061640;27;20091;-57
2023/03/19 02:17:46;;;;;;;1.83;1.43;;;;;;;8.01;100.00;97534.50;22061674;27;20036;-57
2023/03/19 02:27:49;;;;;;;2.90;1.80;;;;;;;7.95;100.00;97535.56;22060811;27;20051;-57
2023/03/19 02:37:52;;;;;;;4.40;1.57;;;;;;;7.86;100.00;97524.41;22061014;26;20029;-53
2023/03/19 02:47:55;;;;;;;2.37;1.23;;;;;;;7.80;100.00;97526.25;22061264;27;20025;-57
2023/03/19 02:57:57;;;;;;;3.37;1.80;;;;;;;7.74;100.00;97530.00;22061257;27;20039;-56
2023/03/19 03:08:01;;;;;;;3.00;1.07;;;;;;;7.72;100.00;97531.31;22041125;27;20033;-57
2023/03/19 03:18:04;;;;;;;1.80;1.23;;;;;;;7.72;100.00;97539.37;22060688;27;20024;-56
2023/03/19 03:28:07;;;;;;;1.20;0.90;;;;;;;7.69;100.00;97548.78;22060543;26;20033;-56
2023/03/19 03:38:10;;;;;;;2.67;1.40;;;;;;;7.64;100.00;97559.47;22063715;27;20090;-57
2023/03/19 03:48:13;;;;;;;2.90;1.23;;;;;;;7.59;100.00;97567.47;22025762;27;20045;-56
2023/03/19 03:58:16;;;;;;;1.93;1.07;;;;;;;7.55;100.00;97571.75;22064037;27;20016;-56
2023/03/19 04:08:18;;;;;;;2.37;1.03;;;;;;;7.52;100.00;97585.72;22063961;27;20414;-57
2023/03/19 04:18:20;;;;;;;1.80;1.10;;;;;;;7.50;100.00;97585.16;22063473;27;20036;-57
2023/03/19 04:28:23;;;;;;;1.77;1.17;;;;;;;7.51;100.00;97601.06;22062792;26;20072;-56
2023/03/19 04:38:26;;;;;;;2.07;1.30;;;;;;;7.51;100.00;97602.91;22063159;27;20025;-57
2023/03/19 04:48:29;;;;;;;2.43;1.07;;;;;;;7.51;100.00;97601.06;22062649;27;20322;-57
2023/03/19 04:58:31;;;;;;;2.50;1.23;;;;;;;7.46;100.00;97588.34;22043157;27;20027;-58
2023/03/19 05:08:34;;;;;;;2.43;1.70;;;;;;;7.43;100.00;97594.22;22062712;27;20443;-57
2023/03/19 05:18:37;;;;;;;2.77;1.40;;;;;;;7.34;100.00;97594.94;22062297;27;20021;-57
2023/03/19 05:28:42;;;;;;;3.35;1.23;;;;;;;7.25;100.00;97602.59;22062442;27;20413;-57
2023/03/19 05:38:45;;;;;;;2.00;1.20;;;;;;;7.12;100.00;97607.28;22041431;27;20028;-56
2023/03/19 05:48:48;;;;;;;1.97;0.93;;;;;;;7.11;100.00;97605.69;22062070;27;20067;-57
2023/03/19 05:58:50;;;;;;;4.07;1.30;;;;;;;7.11;100.00;97605.69;22062386;27;20025;-57
2023/03/19 06:08:53;;;;;;;2.30;1.40;;;;;;;7.17;100.00;97613.78;22042479;27;20304;-55
2023/03/19 06:18:55;;;;;;;3.80;2.23;;;;;;;7.20;100.00;97626.75;22041439;26;20436;-56
2023/03/19 06:28:58;;;;;;;4.73;2.33;;;;;;;7.28;100.00;97642.47;22061532;27;20414;-57
2023/03/19 06:39:02;;;;;;;4.67;2.50;;;;;;;7.46;100.00;97652.91;22061566;27;20021;-57
2023/03/19 06:49:04;;;;;;;5.20;2.50;;;;;;;7.70;100.00;97654.53;22061197;27;20025;-56
2023/03/19 06:59:06;;;;;;;5.57;2.43;;;;;;;8.03;100.00;97664.34;22061027;27;20322;-58
2023/03/19 07:09:09;;;;;;;5.43;2.70;;;;;;;8.40;100.00;97660.91;22042583;27;20032;-56
2023/03/19 07:19:12;;;;;;;4.60;2.53;;;;;;;8.82;100.00;97684.47;22064364;27;20039;-57
2023/03/19 07:29:14;;;;;;;1.97;1.53;;;;;;;9.16;100.00;97694.13;22065060;27;20039;-57
2023/03/19 07:39:17;;;;;;;4.33;2.40;;;;;;;9.45;100.00;97697.25;22064483;27;20306;-57
2023/03/19 07:49:22;;;;;;;3.70;2.27;;;;;;;9.81;100.00;97702.00;22064125;27;20064;-58
2023/03/19 07:59:24;;;;;;;3.10;1.60;;;;;;;10.28;100.00;97721.91;22044511;27;20044;-57
2023/03/19 08:09:27;;;;;;;2.50;1.40;;;;;;;10.55;100.00;97710.06;22044257;26;20043;-57
2023/03/19 08:19:29;;;;;;;7.77;1.90;;;;;;;10.55;100.00;97715.47;22043310;27;20022;-58
2023/03/19 08:29:32;;;;;;;3.07;1.83;;;;;;;11.01;100.00;97716.28;22063092;27;20024;-57
2023/03/19 08:39:35;;;;;;;2.97;2.00;;;;;;;11.84;100.00;97719.66;22043470;27;20100;-57
2023/03/19 08:49:37;;;;;;;5.33;1.47;;;;;;;12.51;100.00;97735.59;22062806;27;20043;-57
2023/03/19 08:59:40;;;;;;;2.83;1.70;;;;;;;12.90;100.00;97733.19;22062278;27;20043;-57
2023/03/19 09:09:43;;;;;;;3.08;1.50;;;;;;;13.48;100.00;97738.63;22062414;27;20028;-58
2023/03/19 09:19:46;;;;;;;3.80;1.70;;;;;;;14.12;98.44;97749.34;22061905;27;20057;-57
2023/03/19 09:29:48;;;;;;;6.03;2.50;;;;;;;14.20;92.43;97756.84;22042112;27;20028;-58
2023/03/19 09:39:51;;;;;;;6.90;1.98;;;;;;;14.16;89.51;97753.09;22062365;27;20016;-58
2023/03/19 09:50:04;;;;;;;4.05;1.90;;;;;;;14.63;85.10;97766.13;22061700;27;20071;-58
2023/03/19 10:00:21;;;;;;;4.32;1.85;;;;;;;14.94;78.26;97760.19;22061910;27;20059;-58
2023/03/19 10:10:49;;;;;;;3.08;1.62;;;;;;;15.37;68.26;97749.94;22061450;27;20059;-58
2023/03/19 10:21:01;;;;;;;4.43;1.55;;;;;;;15.76;68.24;97745.97;22061283;27;20427;-58
2023/03/19 10:31:26;;;;;;;2.05;1.40;;;;;;;16.13;64.01;97748.84;22041824;27;20036;-58
2023/03/19 10:41:52;;;;;;;4.22;1.58;;;;;;;16.53;63.29;97746.34;22041224;27;20040;-58
2023/03/19 10:51:57;;;;;;;4.05;2.00;;;;;;;16.37;58.09;97740.41;22061316;27;20056;-58
2023/03/19 11:02:22;;;;;;;3.60;1.80;;;;;;;17.01;58.71;97736.78;22060216;27;20025;-58
2023/03/19 11:12:30;;;;;;;2.65;1.30;;;;;;;17.22;55.76;97726.16;22060346;27;20033;-58
2023/03/19 11:22:36;;;;;;;2.78;1.45;;;;;;;17.20;56.33;97733.06;22040121;27;20029;-57
2023/03/19 11:32:54;;;;;;;3.47;1.35;;;;;;;17.43;57.23;97720.97;22060311;27;20431;-55
2023/03/19 11:43:15;;;;;;;2.72;1.45;;;;;;;17.33;55.66;97729.44;22060414;27;20037;-58
2023/03/19 11:53:30;;;;;;;3.05;1.30;;;;;;;16.68;58.95;97715.16;22040278;27;20044;-58
2023/03/19 12:04:14;;;;;;;2.20;1.00;;;;;;;15.72;67.82;97708.72;22063657;27;20318;-58
2023/03/19 12:14:26;;;;;;;3.08;1.37;;;;;;;14.85;79.31;97702.91;22045704;27;20048;-58
2023/03/19 12:24:42;;;;;;;3.30;1.30;;;;;;;14.39;92.79;97709.84;22043995;27;20020;-58
2023/03/19 12:35:12;;;;;;;2.75;1.25;;;;;;;13.96;100.00;97709.84;22043983;27;20053;-58
2023/03/19 12:45:35;;;;;;;2.70;1.10;;;;;;;13.80;100.00;97712.75;22043688;27;20032;-58
2023/03/19 12:55:53;;;;;;;2.75;1.40;;;;;;;13.63;100.00;97724.06;22043322;27;20032;-57
2023/03/19 13:06:07;;;;;;;3.05;1.30;;;;;;;13.66;100.00;97720.81;22062443;27;20024;-58
2023/03/19 13:16:32;;;;;;;2.83;1.47;;;;;;;14.06;100.00;97709.75;22062838;27;20073;-58
2023/03/19 13:26:36;;;;;;;2.95;1.52;;;;;;;14.17;100.00;97688.62;22062193;27;20068;-58
2023/03/19 13:36:40;;;;;;;3.78;1.42;;;;;;;14.13;100.00;97690.31;22042453;27;20425;-58
2023/03/19 13:46:46;;;;;;;4.22;1.30;;;;;;;13.83;100.00;97704.03;22062074;27;20020;-58
2023/03/19 13:57:01;;;;;;;4.47;1.55;;;;;;;13.39;100.00;97699.63;22061976;27;20047;-58
2023/03/19 14:07:11;;;;;;;3.07;1.33;;;;;;;13.15;100.00;97711.22;22061776;27;20043;-56
2023/03/19 14:17:35;;;;;;;4.87;0.80;;;;;;;12.09;100.00;97734.19;22061413;27;20318;-56
2023/03/19 14:27:54;;;;;;;5.50;0.90;;;;;;;10.89;100.00;97706.84;22061314;27;20025;-55
2023/03/19 14:37:57;;;;;;;1.73;0.70;;;;;;;10.70;100.00;97699.25;22042195;27;20121;-56
2023/03/19 14:48:39;;;;;;;1.23;0.70;;;;;;;11.03;100.00;97699.78;22061317;27;20021;-55
2023/03/19 14:58:56;;;;;;;3.53;1.40;;;;;;;12.53;100.00;97703.56;22061474;27;20044;-56
2023/03/19 15:09:01;;;;;;;1.35;0.60;;;;;;;13.39;100.00;97705.06;22061016;27;20050;-57
2023/03/19 15:19:10;;;;;;;1.55;0.75;;;;;;;14.20;100.00;97698.94;22060366;27;20029;-57
2023/03/19 15:29:13;;;;;;;1.62;0.90;;;;;;;14.54;100.00;97709.59;22061574;26;20028;-56
2023/03/19 15:39:23;;;;;;;2.58;1.00;;;;;;;14.67;100.00;97712.72;22046058;27;20043;-57
2023/03/19 15:49:36;;;;;;;2.25;0.93;;;;;;;13.75;100.00;97715.53;22064786;27;20029;-56
2023/03/19 15:59:39;;;;;;;1.70;0.62;;;;;;;13.53;100.00;97711.41;22063987;27;20029;-57
2023/03/19 16:09:43;;;;;;;1.80;0.95;;;;;;;13.29;100.00;97713.28;22063691;27;20100;-56
2023/03/19 16:19:51;;;;;;;1.77;0.90;;;;;;;13.00;100.00;97711.38;22063954;27;20032;-56
2023/03/19 16:29:58;;;;;;;1.80;1.20;;;;;;;12.75;100.00;97710.47;22063638;27;20021;-56
2023/03/19 16:40:22;;;;;;;3.37;1.40;;;;;;;12.54;100.00;97720.69;22063107;27;20033;-55
2023/03/19 16:50:36;;;;;;;1.97;1.10;;;;;;;12.20;100.00;97738.47;22043076;27;20361;-56
2023/03/19 17:00:44;;;;;;;1.37;0.70;;;;;;;11.68;100.00;97750.59;22062991;27;20048;-56
2023/03/19 17:10:52;;;;;;;2.23;1.00;;;;;;;11.24;100.00;97743.09;22062756;27;20020;-57
2023/03/19 17:20:57;;;;;;;1.60;0.90;;;;;;;10.91;100.00;97750.66;22061874;26;20029;-55
2023/03/19 17:31:00;;;;;;;1.50;0.73;;;;;;;10.53;100.00;97750.09;22062469;27;20021;-56
2023/03/19 17:41:18;;;;;;;2.10;1.07;;;;;;;10.28;100.00;97757.03;22062502;27;20059;-56
2023/03/19 17:51:24;;;;;;;3.23;0.63;;;;;;;10.21;100.00;97791.56;22024858;27;20056;-56
2023/03/19 18:01:28;;;;;;;0.67;0.30;;;;;;;9.88;100.00;97869.22;22062044;27;20435;-54
2023/03/19 18:11:31;;;;;;;0.80;0.20;;;;;;;8.78;100.00;97880.19;22061425;27;20454;-57
2023/03/19 18:21:34;;;;;;;1.23;0.13;;;;;;;8.50;100.00;97889.28;22061770;27;20088;-54
2023/03/19 18:31:37;;;;;;;0.33;0.13;;;;;;;8.41;100.00;97885.34;22042039;27;20064;-56
2023/03/19 18:41:41;;;;;;;2.23;0.40;;;;;;;8.28;100.00;97897.31;22061471;27;20026;-55
2023/03/19 18:51:43;;;;;;;0.80;0.30;;;;;;;8.28;100.00;97898.13;22061649;27;20020;-56
2023/03/19 19:02:39;;;;;;;0.90;0.40;;;;;;;8.18;100.00;97916.03;22061680;27;20040;-56
2023/03/19 19:12:45;;;;;;;0.90;0.40;;;;;;;8.12;100.00;97928.63;22045931;27;20064;-56
2023/03/19 19:22:50;;;;;;;1.03;0.37;;;;;;;8.08;100.00;97935.56;22065020;27;20039;-54
2023/03/19 19:32:53;;;;;;;1.95;0.60;;;;;;;8.06;100.00;97943.09;22064950;27;20068;-56
2023/03/19 19:42:57;;;;;;;1.00;0.70;;;;;;;7.93;100.00;97931.59;22064836;27;20479;-56
2023/03/19 19:53:00;;;;;;;1.30;0.60;;;;;;;7.63;100.00;97940.81;22044782;27;20419;-56
2023/03/19 20:03:03;;;;;;;1.50;0.40;;;;;;;7.61;100.00;97950.19;22064166;27;20044;-54
2023/03/19 20:13:05;;;;;;;1.50;0.80;;;;;;;7.54;100.00;97953.03;22063932;27;20476;-54
2023/03/19 20:23:09;;;;;;;0.60;0.43;;;;;;;7.31;100.00;97969.31;22063106;27;20030;-55
2023/03/19 20:33:12;;;;;;;1.73;0.90;;;;;;;6.99;100.00;97967.91;22063629;27;20017;-54
2023/03/19 20:43:31;;;;;;;1.20;0.90;;;;;;;6.68;100.00;97967.28;22063279;27;20043;-54
2023/03/19 20:53:33;;;;;;;2.40;0.80;;;;;;;6.59;100.00;97964.16;22063426;27;20368;-55
2023/03/19 21:03:37;;;;;;;1.50;1.00;;;;;;;6.47;100.00;97970.59;22063008;27;20025;-54
2023/03/19 21:13:40;;;;;;;2.03;1.07;;;;;;;6.13;100.00;97965.03;22062666;27;20017;-55
2023/03/19 21:23:56;;;;;;;2.03;1.20;;;;;;;5.91;100.00;97962.91;22062414;27;20043;-56
2023/03/19 21:33:59;;;;;;;2.13;1.50;;;;;;;5.77;100.00;97975.72;22062547;27;20333;-55
2023/03/19 21:44:06;;;;;;;1.80;1.10;;;;;;;5.54;100.00;97996.06;22062476;27;20025;-55
2023/03/19 21:54:10;;;;;;;2.07;0.97;;;;;;;5.38;100.00;97997.53;22042411;27;20398;-55
2023/03/19 22:04:12;;;;;;;0.70;0.60;;;;;;;5.26;100.00;98007.41;22062170;27;20032;-56
2023/03/19 22:14:18;;;;;;;1.33;0.60;;;;;;;5.18;100.00;98013.06;22062388;27;20025;-55
2023/03/19 22:24:21;;;;;;;0.90;0.60;;;;;;;4.90;100.00;98015.28;22041478;27;20104;-52
2023/03/19 22:34:29;;;;;;;0.70;0.57;;;;;;;4.75;100.00;98021.03;22061775;27;20021;-55
2023/03/19 22:44:31;;;;;;;1.37;0.63;;;;;;;5.09;100.00;98036.72;22060718;26;20425;-56
2023/03/19 22:54:34;;;;;;;3.57;0.70;;;;;;;5.32;100.00;98033.31;22061269;27;20038;-56
2023/03/19 23:04:37;;;;;;;2.23;0.57;;;;;;;5.47;100.00;98042.81;22041567;27;20025;-55
2023/03/19 23:14:40;;;;;;;0.50;0.30;;;;;;;5.58;100.00;98050.91;22060719;27;20035;-55
2023/03/19 23:24:43;;;;;;;0.63;0.40;;;;;;;5.72;100.00;98050.72;22060529;27;20035;-55
2023/03/19 23:34:46;;;;;;;7.47;1.97;;;;;;;5.83;100.00;98057.97;22060792;27;20102;-55
2023/03/19 23:45:03;;;;;;;3.33;1.20;;;;;;;5.94;100.00;98064.41;22060691;27;20055;-56
2023/03/19 23:55:06;;;;;;;0.90;0.60;;;;;;;6.04;100.00;98053.16;22063420;27;20065;-55
